メインページ
METAR-TAF:

METAR-TAF

空港 :

ジョージ・ブッシュ・インターコンチネンタル空港

ヒューストン, テキサス州, アメリカ合衆国

緯度: 29-59-33N, 経度: 095-21-50W, 海抜: 29m

現時点の気象観測

当レポートは54分前の08:53(UTC)に作成
南/南東の風 3kt
気温 23°C
湿度 94%
気圧 1015 hPa
視程: 16.1km
高度1800ftの雲はほとんどない
高度20000ftの雲は散在している

METAR: KIAH 200853Z 15003KT 10SM FEW018 SCT200 23/22 A2997 RMK AO2 SLP146 T02280222 58003

時間: 04:47 (09:47 UTC)

予報

当レポートは50分前の08:57(UTC)に作成
予報は20日の 09時(UTC)から 21日の 12時(UTC)まで有効
南東の風 5kt
視程: 10km
高度2000ftの雲は散在している
高度25000ftの雲は散在している
20日の 11時(UTC)から 20日の 14時(UTC)まで一時的に
高度2000ftの千切れ雲あり
20日の 1500時(UTC)から
南東の風 10kt
視程: 10km
高度3500ftの雲は散在している
高度6000ftの雲は散在している
20日の 2100時(UTC)から
南東の風 11kt
視程: 10km
高度6000ftの千切れ雲あり, 積乱雲.
近辺で激しい雷雨
21日の 0200時(UTC)から
南東の風 8kt
視程: 10km
高度20000ftの雲はほとんどない

TAF: KIAH 200857Z 2009/2112 14005KT P6SM SCT020 SCT250 TEMPO 2011/2014 BKN020 FM201500 14010KT P6SM SCT035 SCT060 FM202100 13011KT P6SM VCTS BKN060CB FM210200 14008KT P6SM FEW200

4,000以上の空港の気象観測と天気予報(METAR報とTAF報)

利用可能な観測所は地図上に黄色い丸と赤い丸で示す。

丸の上にカーソルを重ねると観測所名を参照できる。

次にクリックすると気象観測と天気予報を参照できる。

マップの切り替え:黒色「×」印の緑ボタンをクリックして拡大、「-」印の緑ボタンをクリックして縮小、緑色の三角印をクリックして隣りの地図に切り替え


METAR-TAF: